sensor_id;sensor_type;location;lat;lon;timestamp;P1;durP1;ratioP1;P2;durP2;ratioP2
13250;SDS011;6692;50.710;7.180;2023-04-24T00:00:52;1999.90;;;999.90;;
13250;SDS011;6692;50.710;7.180;2023-04-24T00:02:53;1999.90;;;999.90;;
13250;SDS011;6692;50.710;7.180;2023-04-24T00:04:53;1999.90;;;999.90;;
13250;SDS011;6692;50.710;7.180;2023-04-24T00:06:54;1999.90;;;999.90;;
13250;SDS011;6692;50.710;7.180;2023-04-24T00:08:55;1999.90;;;999.90;;
13250;SDS011;6692;50.710;7.180;2023-04-24T00:10:55;1999.90;;;999.90;;
13250;SDS011;6692;50.710;7.180;2023-04-24T00:12:56;1999.90;;;999.90;;
13250;SDS011;6692;50.710;7.180;2023-04-24T00:14:58;1999.90;;;999.90;;
13250;SDS011;6692;50.710;7.180;2023-04-24T00:16:58;1999.90;;;999.90;;
13250;SDS011;6692;50.710;7.180;2023-04-24T00:18:59;1999.90;;;999.90;;
13250;SDS011;6692;50.710;7.180;2023-04-24T00:20:59;1999.90;;;999.90;;
13250;SDS011;6692;50.710;7.180;2023-04-24T00:23:00;1999.90;;;999.90;;
13250;SDS011;6692;50.710;7.180;2023-04-24T00:25:01;1999.90;;;999.90;;
13250;SDS011;6692;50.710;7.180;2023-04-24T00:27:01;1999.90;;;999.90;;
13250;SDS011;6692;50.710;7.180;2023-04-24T00:29:02;1999.90;;;999.90;;
13250;SDS011;6692;50.710;7.180;2023-04-24T00:31:03;1999.90;;;999.90;;
13250;SDS011;6692;50.710;7.180;2023-04-24T00:33:04;1999.90;;;999.90;;
13250;SDS011;6692;50.710;7.180;2023-04-24T00:35:05;1999.90;;;999.90;;
13250;SDS011;6692;50.710;7.180;2023-04-24T00:37:06;1999.90;;;999.90;;
13250;SDS011;6692;50.710;7.180;2023-04-24T00:39:07;1999.90;;;999.90;;
13250;SDS011;6692;50.710;7.180;2023-04-24T00:41:09;1999.90;;;999.90;;
13250;SDS011;6692;50.710;7.180;2023-04-24T00:43:10;1999.90;;;999.90;;
13250;SDS011;6692;50.710;7.180;2023-04-24T00:45:11;1999.90;;;999.90;;
13250;SDS011;6692;50.710;7.180;2023-04-24T00:47:11;1999.90;;;999.90;;
13250;SDS011;6692;50.710;7.180;2023-04-24T00:49:13;1999.90;;;999.90;;
13250;SDS011;6692;50.710;7.180;2023-04-24T00:51:13;1999.90;;;999.90;;
13250;SDS011;6692;50.710;7.180;2023-04-24T00:53:13;1999.90;;;999.90;;
13250;SDS011;6692;50.710;7.180;2023-04-24T00:55:14;1999.90;;;999.90;;
13250;SDS011;6692;50.710;7.180;2023-04-24T00:57:15;1999.90;;;999.90;;
13250;SDS011;6692;50.710;7.180;2023-04-24T00:59:16;1999.90;;;999.90;;
13250;SDS011;6692;50.710;7.180;2023-04-24T01:01:16;1999.90;;;999.90;;
13250;SDS011;6692;50.710;7.180;2023-04-24T01:03:17;1999.90;;;999.90;;
13250;SDS011;6692;50.710;7.180;2023-04-24T01:05:17;1999.90;;;999.90;;
13250;SDS011;6692;50.710;7.180;2023-04-24T01:07:19;1999.90;;;999.90;;
13250;SDS011;6692;50.710;7.180;2023-04-24T01:09:20;1999.90;;;999.90;;
13250;SDS011;6692;50.710;7.180;2023-04-24T01:11:21;1999.90;;;999.90;;
13250;SDS011;6692;50.710;7.180;2023-04-24T01:13:22;1999.90;;;999.90;;
13250;SDS011;6692;50.710;7.180;2023-04-24T01:15:23;1999.90;;;999.90;;
13250;SDS011;6692;50.710;7.180;2023-04-24T01:17:24;1999.90;;;999.90;;
13250;SDS011;6692;50.710;7.180;2023-04-24T01:19:24;1999.90;;;999.90;;
13250;SDS011;6692;50.710;7.180;2023-04-24T01:21:26;1999.90;;;999.90;;
13250;SDS011;6692;50.710;7.180;2023-04-24T01:23:26;1999.90;;;999.90;;
13250;SDS011;6692;50.710;7.180;2023-04-24T01:25:27;1999.90;;;999.90;;
13250;SDS011;6692;50.710;7.180;2023-04-24T01:27:28;1999.90;;;999.90;;
13250;SDS011;6692;50.710;7.180;2023-04-24T01:29:28;1999.90;;;999.90;;
13250;SDS011;6692;50.710;7.180;2023-04-24T01:31:29;1999.90;;;999.90;;
13250;SDS011;6692;50.710;7.180;2023-04-24T01:33:31;1999.90;;;999.90;;
13250;SDS011;6692;50.710;7.180;2023-04-24T01:35:32;681.73;;;646.70;;
13250;SDS011;6692;50.710;7.180;2023-04-24T01:37:33;970.63;;;911.57;;
13250;SDS011;6692;50.710;7.180;2023-04-24T01:39:34;1010.93;;;947.20;;
13250;SDS011;6692;50.710;7.180;2023-04-24T01:41:35;1050.37;;;981.37;;
13250;SDS011;6692;50.710;7.180;2023-04-24T01:43:35;1052.03;;;982.93;;
13250;SDS011;6692;50.710;7.180;2023-04-24T01:45:36;1042.10;;;973.70;;
13250;SDS011;6692;50.710;7.180;2023-04-24T01:47:36;1009.57;;;945.10;;
13250;SDS011;6692;50.710;7.180;2023-04-24T01:49:38;1018.77;;;953.70;;
13250;SDS011;6692;50.710;7.180;2023-04-24T01:51:38;1040.20;;;971.50;;
13250;SDS011;6692;50.710;7.180;2023-04-24T01:53:38;1019.20;;;953.40;;
13250;SDS011;6692;50.710;7.180;2023-04-24T01:55:40;1019.63;;;953.37;;
13250;SDS011;6692;50.710;7.180;2023-04-24T01:57:40;1040.83;;;972.70;;
13250;SDS011;6692;50.710;7.180;2023-04-24T01:59:42;1017.47;;;951.63;;
13250;SDS011;6692;50.710;7.180;2023-04-24T02:01:43;1033.27;;;965.43;;
13250;SDS011;6692;50.710;7.180;2023-04-24T02:03:43;1054.30;;;984.07;;
13250;SDS011;6692;50.710;7.180;2023-04-24T02:05:44;1051.73;;;981.47;;
13250;SDS011;6692;50.710;7.180;2023-04-24T02:07:44;1049.63;;;979.57;;
13250;SDS011;6692;50.710;7.180;2023-04-24T02:09:45;1052.63;;;982.47;;
13250;SDS011;6692;50.710;7.180;2023-04-24T02:11:46;966.90;;;908.23;;
13250;SDS011;6692;50.710;7.180;2023-04-24T02:13:46;1006.43;;;942.77;;
13250;SDS011;6692;50.710;7.180;2023-04-24T02:15:47;1030.30;;;963.63;;
13250;SDS011;6692;50.710;7.180;2023-04-24T02:17:48;1020.57;;;954.83;;
13250;SDS011;6692;50.710;7.180;2023-04-24T02:19:48;1034.77;;;967.43;;
13250;SDS011;6692;50.710;7.180;2023-04-24T02:21:49;1031.20;;;963.97;;
13250;SDS011;6692;50.710;7.180;2023-04-24T02:23:50;1029.97;;;963.53;;
13250;SDS011;6692;50.710;7.180;2023-04-24T02:25:50;1052.03;;;981.83;;
13250;SDS011;6692;50.710;7.180;2023-04-24T02:27:51;1054.27;;;983.43;;
13250;SDS011;6692;50.710;7.180;2023-04-24T02:29:52;1041.00;;;972.43;;
13250;SDS011;6692;50.710;7.180;2023-04-24T02:31:52;1051.57;;;981.73;;
13250;SDS011;6692;50.710;7.180;2023-04-24T02:33:53;1038.20;;;969.27;;
13250;SDS011;6692;50.710;7.180;2023-04-24T02:35:54;1051.93;;;981.50;;
13250;SDS011;6692;50.710;7.180;2023-04-24T02:37:54;997.20;;;934.63;;
13250;SDS011;6692;50.710;7.180;2023-04-24T02:39:55;1023.37;;;956.83;;
13250;SDS011;6692;50.710;7.180;2023-04-24T02:41:56;1043.93;;;974.47;;
13250;SDS011;6692;50.710;7.180;2023-04-24T02:43:57;1050.17;;;980.13;;
13250;SDS011;6692;50.710;7.180;2023-04-24T02:45:59;1017.60;;;952.40;;
13250;SDS011;6692;50.710;7.180;2023-04-24T02:47:59;1053.53;;;982.97;;
13250;SDS011;6692;50.710;7.180;2023-04-24T02:50:01;1047.50;;;977.77;;
13250;SDS011;6692;50.710;7.180;2023-04-24T02:52:01;1025.87;;;958.90;;
13250;SDS011;6692;50.710;7.180;2023-04-24T02:54:02;1011.20;;;946.47;;
13250;SDS011;6692;50.710;7.180;2023-04-24T02:56:03;1042.37;;;973.27;;
13250;SDS011;6692;50.710;7.180;2023-04-24T02:58:04;1047.33;;;977.50;;
13250;SDS011;6692;50.710;7.180;2023-04-24T03:00:05;1016.03;;;950.83;;
13250;SDS011;6692;50.710;7.180;2023-04-24T03:02:06;1050.50;;;980.30;;
13250;SDS011;6692;50.710;7.180;2023-04-24T03:04:07;1053.97;;;983.37;;
13250;SDS011;6692;50.710;7.180;2023-04-24T03:06:08;1041.43;;;972.27;;
13250;SDS011;6692;50.710;7.180;2023-04-24T03:08:08;1040.47;;;971.50;;
13250;SDS011;6692;50.710;7.180;2023-04-24T03:10:09;1033.90;;;965.53;;
13250;SDS011;6692;50.710;7.180;2023-04-24T03:12:11;1052.03;;;982.50;;
13250;SDS011;6692;50.710;7.180;2023-04-24T03:14:11;1052.50;;;982.50;;
13250;SDS011;6692;50.710;7.180;2023-04-24T03:16:12;1043.13;;;973.07;;
13250;SDS011;6692;50.710;7.180;2023-04-24T03:18:13;1038.00;;;968.97;;
13250;SDS011;6692;50.710;7.180;2023-04-24T03:20:13;1029.93;;;962.93;;
13250;SDS011;6692;50.710;7.180;2023-04-24T03:22:15;1043.53;;;974.73;;
13250;SDS011;6692;50.710;7.180;2023-04-24T03:24:16;1025.10;;;958.70;;
13250;SDS011;6692;50.710;7.180;2023-04-24T03:26:17;1046.43;;;976.77;;
13250;SDS011;6692;50.710;7.180;2023-04-24T03:28:18;1028.97;;;962.20;;
13250;SDS011;6692;50.710;7.180;2023-04-24T03:30:18;1010.40;;;945.87;;
13250;SDS011;6692;50.710;7.180;2023-04-24T03:32:19;1011.90;;;947.53;;
13250;SDS011;6692;50.710;7.180;2023-04-24T03:34:20;1030.70;;;963.67;;
13250;SDS011;6692;50.710;7.180;2023-04-24T03:36:20;1050.53;;;980.27;;
13250;SDS011;6692;50.710;7.180;2023-04-24T03:38:21;1035.70;;;967.63;;
13250;SDS011;6692;50.710;7.180;2023-04-24T03:40:22;1067.70;;;994.87;;
13250;SDS011;6692;50.710;7.180;2023-04-24T03:42:23;1076.67;;;999.77;;
13250;SDS011;6692;50.710;7.180;2023-04-24T03:44:24;1070.93;;;997.07;;
13250;SDS011;6692;50.710;7.180;2023-04-24T03:46:24;1086.03;;;999.90;;
13250;SDS011;6692;50.710;7.180;2023-04-24T03:48:25;1084.73;;;999.90;;
13250;SDS011;6692;50.710;7.180;2023-04-24T03:50:26;1087.67;;;999.90;;
13250;SDS011;6692;50.710;7.180;2023-04-24T03:52:27;1091.27;;;999.90;;
13250;SDS011;6692;50.710;7.180;2023-04-24T03:54:28;1084.67;;;999.90;;
13250;SDS011;6692;50.710;7.180;2023-04-24T03:56:28;1100.40;;;999.90;;
13250;SDS011;6692;50.710;7.180;2023-04-24T03:58:30;1083.97;;;999.90;;
13250;SDS011;6692;50.710;7.180;2023-04-24T04:00:30;1378.40;;;996.80;;
13250;SDS011;6692;50.710;7.180;2023-04-24T04:02:31;1087.30;;;999.90;;
13250;SDS011;6692;50.710;7.180;2023-04-24T04:04:32;1087.33;;;999.90;;
13250;SDS011;6692;50.710;7.180;2023-04-24T04:06:33;1375.93;;;993.77;;
13250;SDS011;6692;50.710;7.180;2023-04-24T04:08:34;1999.90;;;999.90;;
13250;SDS011;6692;50.710;7.180;2023-04-24T04:10:34;1999.90;;;999.90;;
13250;SDS011;6692;50.710;7.180;2023-04-24T04:12:35;1999.90;;;999.90;;
13250;SDS011;6692;50.710;7.180;2023-04-24T04:14:36;1999.90;;;999.90;;
13250;SDS011;6692;50.710;7.180;2023-04-24T04:16:36;1999.90;;;999.90;;
13250;SDS011;6692;50.710;7.180;2023-04-24T04:18:37;1999.90;;;999.90;;
13250;SDS011;6692;50.710;7.180;2023-04-24T04:20:38;1999.90;;;999.90;;
13250;SDS011;6692;50.710;7.180;2023-04-24T04:22:39;1999.90;;;999.90;;
13250;SDS011;6692;50.710;7.180;2023-04-24T04:24:40;1999.90;;;999.90;;
13250;SDS011;6692;50.710;7.180;2023-04-24T04:26:41;1999.90;;;999.90;;
13250;SDS011;6692;50.710;7.180;2023-04-24T04:28:42;1999.90;;;999.90;;
13250;SDS011;6692;50.710;7.180;2023-04-24T04:30:42;1999.90;;;999.90;;
13250;SDS011;6692;50.710;7.180;2023-04-24T04:32:44;1999.90;;;999.90;;
13250;SDS011;6692;50.710;7.180;2023-04-24T04:34:44;1999.90;;;999.90;;
13250;SDS011;6692;50.710;7.180;2023-04-24T04:36:46;1999.90;;;999.90;;
13250;SDS011;6692;50.710;7.180;2023-04-24T04:38:47;1999.90;;;999.90;;
13250;SDS011;6692;50.710;7.180;2023-04-24T04:40:47;1999.90;;;999.90;;
13250;SDS011;6692;50.710;7.180;2023-04-24T04:42:48;1999.90;;;999.90;;
13250;SDS011;6692;50.710;7.180;2023-04-24T04:44:48;1999.90;;;999.90;;
13250;SDS011;6692;50.710;7.180;2023-04-24T04:46:49;1999.90;;;999.90;;
13250;SDS011;6692;50.710;7.180;2023-04-24T04:48:50;1999.90;;;999.90;;
13250;SDS011;6692;50.710;7.180;2023-04-24T04:50:50;1999.90;;;999.90;;
13250;SDS011;6692;50.710;7.180;2023-04-24T04:52:51;1999.90;;;999.90;;
13250;SDS011;6692;50.710;7.180;2023-04-24T04:54:52;1999.90;;;999.90;;
13250;SDS011;6692;50.710;7.180;2023-04-24T04:56:52;1999.90;;;999.90;;
13250;SDS011;6692;50.710;7.180;2023-04-24T04:58:53;1999.90;;;999.90;;
13250;SDS011;6692;50.710;7.180;2023-04-24T05:00:54;1999.90;;;999.90;;
13250;SDS011;6692;50.710;7.180;2023-04-24T05:02:54;1999.90;;;999.90;;
13250;SDS011;6692;50.710;7.180;2023-04-24T05:04:55;1999.90;;;999.90;;
13250;SDS011;6692;50.710;7.180;2023-04-24T05:06:56;1999.90;;;999.90;;
13250;SDS011;6692;50.710;7.180;2023-04-24T05:08:56;1999.90;;;999.90;;
13250;SDS011;6692;50.710;7.180;2023-04-24T05:10:57;1999.90;;;999.90;;
13250;SDS011;6692;50.710;7.180;2023-04-24T05:12:59;1999.90;;;999.90;;
13250;SDS011;6692;50.710;7.180;2023-04-24T05:14:59;1999.90;;;999.90;;
13250;SDS011;6692;50.710;7.180;2023-04-24T05:17:00;1999.90;;;999.90;;
13250;SDS011;6692;50.710;7.180;2023-04-24T05:19:01;1999.90;;;999.90;;
13250;SDS011;6692;50.710;7.180;2023-04-24T05:21:02;1999.90;;;999.90;;
13250;SDS011;6692;50.710;7.180;2023-04-24T05:23:03;1999.90;;;999.90;;
13250;SDS011;6692;50.710;7.180;2023-04-24T05:25:04;1999.90;;;999.90;;
13250;SDS011;6692;50.710;7.180;2023-04-24T05:27:05;1999.90;;;999.90;;
13250;SDS011;6692;50.710;7.180;2023-04-24T05:29:06;1999.90;;;999.90;;
13250;SDS011;6692;50.710;7.180;2023-04-24T05:31:06;1999.90;;;999.90;;
13250;SDS011;6692;50.710;7.180;2023-04-24T05:33:07;1999.90;;;999.90;;
13250;SDS011;6692;50.710;7.180;2023-04-24T05:35:08;1999.90;;;999.90;;
13250;SDS011;6692;50.710;7.180;2023-04-24T05:37:08;1582.53;;;901.57;;
13250;SDS011;6692;50.710;7.180;2023-04-24T05:39:09;1999.90;;;999.90;;
13250;SDS011;6692;50.710;7.180;2023-04-24T05:41:10;1999.90;;;999.90;;
13250;SDS011;6692;50.710;7.180;2023-04-24T05:43:10;1999.90;;;999.90;;
13250;SDS011;6692;50.710;7.180;2023-04-24T05:45:12;1999.90;;;999.90;;
13250;SDS011;6692;50.710;7.180;2023-04-24T05:47:12;1999.90;;;999.90;;
13250;SDS011;6692;50.710;7.180;2023-04-24T05:49:14;1999.90;;;999.90;;
13250;SDS011;6692;50.710;7.180;2023-04-24T05:51:15;1999.90;;;999.90;;
13250;SDS011;6692;50.710;7.180;2023-04-24T05:53:16;1999.90;;;999.90;;
13250;SDS011;6692;50.710;7.180;2023-04-24T05:55:17;1999.90;;;999.90;;
13250;SDS011;6692;50.710;7.180;2023-04-24T05:57:17;1999.90;;;999.90;;
13250;SDS011;6692;50.710;7.180;2023-04-24T05:59:18;1999.90;;;999.90;;
13250;SDS011;6692;50.710;7.180;2023-04-24T06:01:19;1999.90;;;999.90;;
13250;SDS011;6692;50.710;7.180;2023-04-24T06:03:20;1999.90;;;999.90;;
13250;SDS011;6692;50.710;7.180;2023-04-24T06:05:20;1999.90;;;999.90;;
13250;SDS011;6692;50.710;7.180;2023-04-24T06:07:21;1999.90;;;999.90;;
13250;SDS011;6692;50.710;7.180;2023-04-24T06:09:22;1999.90;;;999.90;;
13250;SDS011;6692;50.710;7.180;2023-04-24T06:11:23;1999.90;;;999.90;;
13250;SDS011;6692;50.710;7.180;2023-04-24T06:13:23;1999.90;;;999.90;;
13250;SDS011;6692;50.710;7.180;2023-04-24T06:15:25;1999.90;;;999.90;;
13250;SDS011;6692;50.710;7.180;2023-04-24T06:17:25;1999.90;;;999.90;;
13250;SDS011;6692;50.710;7.180;2023-04-24T06:19:26;1999.90;;;999.90;;
13250;SDS011;6692;50.710;7.180;2023-04-24T06:21:27;1999.90;;;999.90;;
13250;SDS011;6692;50.710;7.180;2023-04-24T06:23:27;1999.90;;;999.90;;
13250;SDS011;6692;50.710;7.180;2023-04-24T06:25:28;1999.90;;;999.90;;
13250;SDS011;6692;50.710;7.180;2023-04-24T06:27:29;1999.90;;;999.90;;
13250;SDS011;6692;50.710;7.180;2023-04-24T06:29:29;1999.90;;;999.90;;
13250;SDS011;6692;50.710;7.180;2023-04-24T06:31:30;1999.90;;;999.90;;
13250;SDS011;6692;50.710;7.180;2023-04-24T06:33:31;1999.90;;;999.90;;
13250;SDS011;6692;50.710;7.180;2023-04-24T06:35:31;1999.90;;;999.90;;
13250;SDS011;6692;50.710;7.180;2023-04-24T06:37:32;1999.90;;;999.90;;
13250;SDS011;6692;50.710;7.180;2023-04-24T06:39:33;1999.90;;;999.90;;
13250;SDS011;6692;50.710;7.180;2023-04-24T06:41:33;1315.37;;;942.10;;
13250;SDS011;6692;50.710;7.180;2023-04-24T06:43:34;1999.90;;;999.90;;
13250;SDS011;6692;50.710;7.180;2023-04-24T06:45:35;1999.90;;;999.90;;
13250;SDS011;6692;50.710;7.180;2023-04-24T06:47:35;1999.90;;;999.90;;
13250;SDS011;6692;50.710;7.180;2023-04-24T06:49:37;1999.90;;;999.90;;
13250;SDS011;6692;50.710;7.180;2023-04-24T06:51:37;1304.30;;;933.00;;
13250;SDS011;6692;50.710;7.180;2023-04-24T06:53:38;1999.90;;;999.90;;
13250;SDS011;6692;50.710;7.180;2023-04-24T06:55:39;1999.90;;;999.90;;
13250;SDS011;6692;50.710;7.180;2023-04-24T06:57:39;1999.90;;;999.90;;
13250;SDS011;6692;50.710;7.180;2023-04-24T06:59:40;1999.90;;;999.90;;
13250;SDS011;6692;50.710;7.180;2023-04-24T07:01:41;1999.90;;;999.90;;
13250;SDS011;6692;50.710;7.180;2023-04-24T07:03:42;947.77;;;891.20;;
13250;SDS011;6692;50.710;7.180;2023-04-24T07:05:42;1999.90;;;999.90;;
13250;SDS011;6692;50.710;7.180;2023-04-24T07:07:43;1999.90;;;999.90;;
13250;SDS011;6692;50.710;7.180;2023-04-24T07:09:44;1999.90;;;999.90;;
13250;SDS011;6692;50.710;7.180;2023-04-24T07:11:45;1999.90;;;999.90;;
13250;SDS011;6692;50.710;7.180;2023-04-24T07:13:45;1999.90;;;999.90;;
13250;SDS011;6692;50.710;7.180;2023-04-24T07:15:47;1999.90;;;999.90;;
13250;SDS011;6692;50.710;7.180;2023-04-24T07:17:48;1999.90;;;999.90;;
13250;SDS011;6692;50.710;7.180;2023-04-24T07:19:48;1999.90;;;999.90;;
13250;SDS011;6692;50.710;7.180;2023-04-24T07:21:50;1999.90;;;999.90;;
13250;SDS011;6692;50.710;7.180;2023-04-24T07:23:51;1999.90;;;999.90;;
13250;SDS011;6692;50.710;7.180;2023-04-24T07:25:51;1999.90;;;999.90;;
13250;SDS011;6692;50.710;7.180;2023-04-24T07:27:52;1999.90;;;999.90;;
13250;SDS011;6692;50.710;7.180;2023-04-24T07:29:52;1999.90;;;999.90;;
13250;SDS011;6692;50.710;7.180;2023-04-24T07:31:53;1999.90;;;999.90;;
13250;SDS011;6692;50.710;7.180;2023-04-24T07:33:54;1999.90;;;999.90;;
13250;SDS011;6692;50.710;7.180;2023-04-24T07:35:54;1999.90;;;999.90;;
13250;SDS011;6692;50.710;7.180;2023-04-24T07:37:55;1999.90;;;999.90;;
13250;SDS011;6692;50.710;7.180;2023-04-24T07:39:56;1999.90;;;999.90;;
13250;SDS011;6692;50.710;7.180;2023-04-24T07:41:56;1999.90;;;999.90;;
13250;SDS011;6692;50.710;7.180;2023-04-24T07:43:58;1999.90;;;999.90;;
13250;SDS011;6692;50.710;7.180;2023-04-24T07:45:59;1999.90;;;999.90;;
13250;SDS011;6692;50.710;7.180;2023-04-24T07:48:00;1999.90;;;999.90;;
13250;SDS011;6692;50.710;7.180;2023-04-24T07:50:00;1999.90;;;999.90;;
13250;SDS011;6692;50.710;7.180;2023-04-24T07:52:01;1999.90;;;999.90;;
13250;SDS011;6692;50.710;7.180;2023-04-24T07:54:02;1999.90;;;999.90;;
13250;SDS011;6692;50.710;7.180;2023-04-24T07:56:02;1999.90;;;999.90;;
13250;SDS011;6692;50.710;7.180;2023-04-24T07:58:03;1999.90;;;999.90;;
13250;SDS011;6692;50.710;7.180;2023-04-24T08:00:04;1999.90;;;999.90;;
13250;SDS011;6692;50.710;7.180;2023-04-24T08:02:06;1999.90;;;999.90;;
13250;SDS011;6692;50.710;7.180;2023-04-24T08:04:07;1999.90;;;999.90;;
13250;SDS011;6692;50.710;7.180;2023-04-24T08:06:08;1999.90;;;999.90;;
13250;SDS011;6692;50.710;7.180;2023-04-24T08:08:08;1999.90;;;999.90;;
13250;SDS011;6692;50.710;7.180;2023-04-24T08:10:09;1999.90;;;999.90;;
13250;SDS011;6692;50.710;7.180;2023-04-24T08:12:10;1999.90;;;999.90;;
13250;SDS011;6692;50.710;7.180;2023-04-24T08:14:10;1999.90;;;999.90;;
13250;SDS011;6692;50.710;7.180;2023-04-24T08:16:11;1999.90;;;999.90;;
13250;SDS011;6692;50.710;7.180;2023-04-24T08:18:12;1999.90;;;999.90;;
13250;SDS011;6692;50.710;7.180;2023-04-24T08:20:12;1999.90;;;999.90;;
13250;SDS011;6692;50.710;7.180;2023-04-24T08:22:15;1999.90;;;999.90;;
13250;SDS011;6692;50.710;7.180;2023-04-24T08:24:15;1999.90;;;999.90;;
13250;SDS011;6692;50.710;7.180;2023-04-24T08:26:16;1999.90;;;999.90;;
13250;SDS011;6692;50.710;7.180;2023-04-24T08:28:17;1999.90;;;999.90;;
13250;SDS011;6692;50.710;7.180;2023-04-24T08:30:17;1999.90;;;999.90;;
13250;SDS011;6692;50.710;7.180;2023-04-24T08:32:18;1999.90;;;999.90;;
13250;SDS011;6692;50.710;7.180;2023-04-24T08:34:19;1999.90;;;999.90;;
13250;SDS011;6692;50.710;7.180;2023-04-24T08:36:20;1999.90;;;999.90;;
13250;SDS011;6692;50.710;7.180;2023-04-24T08:38:21;1999.90;;;999.90;;
13250;SDS011;6692;50.710;7.180;2023-04-24T08:40:23;1999.90;;;999.90;;
13250;SDS011;6692;50.710;7.180;2023-04-24T08:42:22;1999.90;;;999.90;;
13250;SDS011;6692;50.710;7.180;2023-04-24T08:44:23;1999.90;;;999.90;;
13250;SDS011;6692;50.710;7.180;2023-04-24T08:46:24;1999.90;;;999.90;;
13250;SDS011;6692;50.710;7.180;2023-04-24T08:48:24;1999.90;;;999.90;;
13250;SDS011;6692;50.710;7.180;2023-04-24T08:50:25;1999.90;;;999.90;;
13250;SDS011;6692;50.710;7.180;2023-04-24T08:52:25;1999.90;;;999.90;;
13250;SDS011;6692;50.710;7.180;2023-04-24T08:54:27;1999.90;;;999.90;;
13250;SDS011;6692;50.710;7.180;2023-04-24T08:56:27;1999.90;;;999.90;;
13250;SDS011;6692;50.710;7.180;2023-04-24T08:58:28;1999.90;;;999.90;;
13250;SDS011;6692;50.710;7.180;2023-04-24T09:00:29;1999.90;;;999.90;;
13250;SDS011;6692;50.710;7.180;2023-04-24T09:02:30;1999.90;;;999.90;;
13250;SDS011;6692;50.710;7.180;2023-04-24T09:04:31;1999.90;;;999.90;;
13250;SDS011;6692;50.710;7.180;2023-04-24T09:06:31;1999.90;;;999.90;;
13250;SDS011;6692;50.710;7.180;2023-04-24T09:08:33;1999.90;;;999.90;;
13250;SDS011;6692;50.710;7.180;2023-04-24T09:10:34;1999.90;;;999.90;;
13250;SDS011;6692;50.710;7.180;2023-04-24T09:12:35;1999.90;;;999.90;;
13250;SDS011;6692;50.710;7.180;2023-04-24T09:14:35;1999.90;;;999.90;;
13250;SDS011;6692;50.710;7.180;2023-04-24T09:16:37;1999.90;;;999.90;;
13250;SDS011;6692;50.710;7.180;2023-04-24T09:18:38;1999.90;;;999.90;;
13250;SDS011;6692;50.710;7.180;2023-04-24T09:22:54;1999.90;;;999.90;;
13250;SDS011;6692;50.710;7.180;2023-04-24T09:24:59;1999.90;;;999.90;;
13250;SDS011;6692;50.710;7.180;2023-04-24T09:27:00;1999.90;;;999.90;;
13250;SDS011;6692;50.710;7.180;2023-04-24T09:29:03;1999.90;;;999.90;;
13250;SDS011;6692;50.710;7.180;2023-04-24T09:31:04;1999.90;;;999.90;;
13250;SDS011;6692;50.710;7.180;2023-04-24T09:33:10;1999.90;;;999.90;;
13250;SDS011;6692;50.710;7.180;2023-04-24T09:35:11;1999.90;;;999.90;;
13250;SDS011;6692;50.710;7.180;2023-04-24T09:37:14;1999.90;;;999.90;;
13250;SDS011;6692;50.710;7.180;2023-04-24T09:39:13;1999.90;;;999.90;;
13250;SDS011;6692;50.710;7.180;2023-04-24T09:41:13;1999.90;;;999.90;;
13250;SDS011;6692;50.710;7.180;2023-04-24T09:43:14;1999.90;;;999.90;;
13250;SDS011;6692;50.710;7.180;2023-04-24T09:45:15;1999.90;;;999.90;;
13250;SDS011;6692;50.710;7.180;2023-04-24T09:47:16;1999.90;;;999.90;;
13250;SDS011;6692;50.710;7.180;2023-04-24T09:49:21;1999.90;;;999.90;;
13250;SDS011;6692;50.710;7.180;2023-04-24T09:51:17;1999.90;;;999.90;;
13250;SDS011;6692;50.710;7.180;2023-04-24T09:53:19;1999.90;;;999.90;;
13250;SDS011;6692;50.710;7.180;2023-04-24T09:55:20;1999.90;;;999.90;;
13250;SDS011;6692;50.710;7.180;2023-04-24T09:57:20;1999.90;;;999.90;;
13250;SDS011;6692;50.710;7.180;2023-04-24T09:59:22;1999.90;;;999.90;;
13250;SDS011;6692;50.710;7.180;2023-04-24T10:01:29;1999.90;;;999.90;;
13250;SDS011;6692;50.710;7.180;2023-04-24T10:03:29;1999.90;;;999.90;;
13250;SDS011;6692;50.710;7.180;2023-04-24T10:05:31;1999.90;;;999.90;;
13250;SDS011;6692;50.710;7.180;2023-04-24T10:07:32;1999.90;;;999.90;;
13250;SDS011;6692;50.710;7.180;2023-04-24T10:09:32;1999.90;;;999.90;;
13250;SDS011;6692;50.710;7.180;2023-04-24T10:11:32;1999.90;;;999.90;;
13250;SDS011;6692;50.710;7.180;2023-04-24T10:13:33;1999.90;;;999.90;;
13250;SDS011;6692;50.710;7.180;2023-04-24T10:15:34;1999.90;;;999.90;;
13250;SDS011;6692;50.710;7.180;2023-04-24T10:17:35;1999.90;;;999.90;;
13250;SDS011;6692;50.710;7.180;2023-04-24T10:19:37;1999.90;;;999.90;;
13250;SDS011;6692;50.710;7.180;2023-04-24T10:21:37;1999.90;;;999.90;;
13250;SDS011;6692;50.710;7.180;2023-04-24T10:23:38;1999.90;;;999.90;;
13250;SDS011;6692;50.710;7.180;2023-04-24T10:25:40;1999.90;;;999.90;;
13250;SDS011;6692;50.710;7.180;2023-04-24T10:27:40;1999.90;;;999.90;;
13250;SDS011;6692;50.710;7.180;2023-04-24T10:29:42;1999.90;;;999.90;;
13250;SDS011;6692;50.710;7.180;2023-04-24T10:31:43;1999.90;;;999.90;;
13250;SDS011;6692;50.710;7.180;2023-04-24T10:33:43;1999.90;;;999.90;;
13250;SDS011;6692;50.710;7.180;2023-04-24T10:35:45;1999.90;;;999.90;;
13250;SDS011;6692;50.710;7.180;2023-04-24T10:37:46;1999.90;;;999.90;;
13250;SDS011;6692;50.710;7.180;2023-04-24T10:39:48;1999.90;;;999.90;;
13250;SDS011;6692;50.710;7.180;2023-04-24T10:41:48;1999.90;;;999.90;;
13250;SDS011;6692;50.710;7.180;2023-04-24T10:46:03;1999.90;;;999.90;;
13250;SDS011;6692;50.710;7.180;2023-04-24T10:48:05;1999.90;;;999.90;;
13250;SDS011;6692;50.710;7.180;2023-04-24T10:50:07;1999.90;;;999.90;;
13250;SDS011;6692;50.710;7.180;2023-04-24T10:52:08;1999.90;;;999.90;;
13250;SDS011;6692;50.710;7.180;2023-04-24T10:56:21;1999.90;;;999.90;;
13250;SDS011;6692;50.710;7.180;2023-04-24T10:58:22;1999.90;;;999.90;;
13250;SDS011;6692;50.710;7.180;2023-04-24T11:00:24;1999.90;;;999.90;;
13250;SDS011;6692;50.710;7.180;2023-04-24T11:02:35;1999.90;;;999.90;;
13250;SDS011;6692;50.710;7.180;2023-04-24T11:04:29;1999.90;;;999.90;;
13250;SDS011;6692;50.710;7.180;2023-04-24T11:06:32;1999.90;;;999.90;;
13250;SDS011;6692;50.710;7.180;2023-04-24T11:08:38;1999.90;;;999.90;;
13250;SDS011;6692;50.710;7.180;2023-04-24T11:10:40;1999.90;;;999.90;;
13250;SDS011;6692;50.710;7.180;2023-04-24T11:12:40;1999.90;;;999.90;;
13250;SDS011;6692;50.710;7.180;2023-04-24T11:16:54;1999.90;;;999.90;;
13250;SDS011;6692;50.710;7.180;2023-04-24T11:21:18;1999.90;;;999.90;;
13250;SDS011;6692;50.710;7.180;2023-04-24T11:23:19;1999.90;;;999.90;;
13250;SDS011;6692;50.710;7.180;2023-04-24T11:25:20;1999.90;;;999.90;;
13250;SDS011;6692;50.710;7.180;2023-04-24T11:27:21;1999.90;;;999.90;;
13250;SDS011;6692;50.710;7.180;2023-04-24T11:29:21;1999.90;;;999.90;;
13250;SDS011;6692;50.710;7.180;2023-04-24T11:33:38;1999.90;;;999.90;;
13250;SDS011;6692;50.710;7.180;2023-04-24T11:35:39;1999.90;;;999.90;;
13250;SDS011;6692;50.710;7.180;2023-04-24T11:37:41;1999.90;;;999.90;;
13250;SDS011;6692;50.710;7.180;2023-04-24T11:39:41;1999.90;;;999.90;;